LGA weather

La Guardia Airport
New York, New York, United States

Public forecast

Using degrees Fahrenheit for public forecast. Weather courtesy of forecast.io.

Current aviation weather report (METAR) for La Guardia Airport

Retrieved 2019/10/23 01:10 UTC (0 seconds ago):

KLGA 230110Z 10010KT 10SM -RA OVC007 16/14 A2985 RMK AO2 P0000 T01560139

Aviation forecast (TAF) for La Guardia Airport

Retrieved 2019-10-23 00:34 UTC (28 minutes ago):

TAF KLGA 222332Z 2300/2406 10010KT 2SM -DZ OVC005 TEMPO 2303/2307 15006KT 1SM BR OVC003 FM230700 23008KT 4SM -RA BR OVC006 FM230900 30010KT 5SM BR BKN025 OVC035 FM231200 29012G17KT P6SM SCT025 SCT250 FM231500 28015G23KT P6SM FEW250 FM232200 27011KT P6SM FEW250